createdAt,value
2023-04-14T00:01:56.881Z,3.90
2023-04-14T00:04:23.799Z,3.90
2023-04-14T00:06:51.476Z,4.40
2023-04-14T00:09:18.137Z,3.70
2023-04-14T00:11:44.769Z,3.80
2023-04-14T00:14:11.415Z,3.70
2023-04-14T00:16:46.374Z,3.50
2023-04-14T00:19:13.110Z,4.00
2023-04-14T00:21:39.769Z,3.90
2023-04-14T00:24:06.451Z,3.80
2023-04-14T00:26:33.271Z,4.10
2023-04-14T00:29:00.236Z,3.80
2023-04-14T00:31:27.093Z,3.80
2023-04-14T00:33:54.229Z,3.70
2023-04-14T00:36:20.909Z,3.60
2023-04-14T00:38:47.611Z,4.60
2023-04-14T00:41:14.264Z,3.40
2023-04-14T00:43:40.956Z,3.40
2023-04-14T00:46:07.975Z,3.30
2023-04-14T00:48:34.797Z,3.50
2023-04-14T00:51:02.089Z,3.00
2023-04-14T00:55:56.196Z,3.50
2023-04-14T00:58:22.950Z,3.90
2023-04-14T01:00:55.563Z,3.30
2023-04-14T01:03:24.457Z,4.30
2023-04-14T01:05:51.518Z,3.60
2023-04-14T01:08:19.178Z,4.60
2023-04-14T01:10:48.963Z,3.50
2023-04-14T01:13:33.487Z,3.50
2023-04-14T01:16:01.519Z,3.60
2023-04-14T01:18:35.113Z,3.40
2023-04-14T01:21:21.901Z,3.40
2023-04-14T01:24:04.837Z,3.60
2023-04-14T01:26:31.715Z,3.70
2023-04-14T01:29:06.795Z,3.70
2023-04-14T01:31:44.194Z,3.70
2023-04-14T01:34:15.675Z,3.80
2023-04-14T01:36:44.620Z,3.60
2023-04-14T01:39:14.216Z,3.70
2023-04-14T01:41:43.588Z,3.70
2023-04-14T01:44:11.129Z,3.50
2023-04-14T01:46:38.562Z,3.70
2023-04-14T01:49:05.569Z,3.70
2023-04-14T01:51:33.299Z,3.40
2023-04-14T01:54:01.641Z,3.60
2023-04-14T01:56:29.082Z,3.50
2023-04-14T01:58:57.340Z,3.40
2023-04-14T02:01:25.317Z,3.60
2023-04-14T02:03:52.199Z,3.80
2023-04-14T02:06:20.161Z,3.80
2023-04-14T02:08:47.628Z,3.90
2023-04-14T02:11:14.835Z,3.90
2023-04-14T02:13:43.365Z,3.90
2023-04-14T02:16:11.001Z,3.70
2023-04-14T02:18:39.106Z,3.50
2023-04-14T02:21:06.066Z,3.50
2023-04-14T02:23:34.867Z,3.60
2023-04-14T02:26:04.830Z,3.10
2023-04-14T02:28:33.436Z,3.30
2023-04-14T02:31:01.849Z,3.40
2023-04-14T02:33:31.323Z,3.50
2023-04-14T02:36:01.202Z,3.40
2023-04-14T02:38:35.861Z,3.50
2023-04-14T02:41:07.047Z,3.60
2023-04-14T02:43:36.794Z,4.30
2023-04-14T02:46:05.444Z,3.20
2023-04-14T02:48:33.834Z,4.40
2023-04-14T02:51:00.991Z,3.60
2023-04-14T02:53:27.913Z,3.20
2023-04-14T02:55:54.592Z,3.50
2023-04-14T02:58:21.594Z,3.50
2023-04-14T03:00:50.039Z,3.50
2023-04-14T03:03:17.133Z,3.40
2023-04-14T03:05:44.086Z,3.50
2023-04-14T03:08:11.362Z,3.50
2023-04-14T03:10:38.333Z,3.70
2023-04-14T03:13:05.289Z,3.50
2023-04-14T03:15:32.491Z,3.60
2023-04-14T03:17:59.755Z,3.30
2023-04-14T03:20:26.964Z,3.40
2023-04-14T03:23:06.368Z,3.70
2023-04-14T03:25:35.152Z,3.70
2023-04-14T03:28:03.822Z,3.80
2023-04-14T03:30:31.600Z,3.80
2023-04-14T03:33:01.088Z,3.60
2023-04-14T03:35:28.597Z,3.70
2023-04-14T03:37:59.770Z,3.20
2023-04-14T03:40:31.633Z,3.80
2023-04-14T03:42:58.719Z,3.70
2023-04-14T03:45:28.712Z,3.70
2023-04-14T03:48:00.256Z,3.80
2023-04-14T03:50:30.036Z,3.60
2023-04-14T03:52:57.690Z,4.50
2023-04-14T03:55:27.021Z,3.50
2023-04-14T03:57:57.446Z,3.50
2023-04-14T04:00:25.581Z,3.40
2023-04-14T04:02:53.757Z,3.30
2023-04-14T04:05:21.103Z,3.40
2023-04-14T04:07:49.566Z,3.40
2023-04-14T04:10:17.075Z,3.40
2023-04-14T04:12:44.232Z,3.60
2023-04-14T04:15:11.429Z,3.60
2023-04-14T04:17:38.626Z,3.60
2023-04-14T04:20:07.460Z,3.40
2023-04-14T04:22:36.571Z,3.50
2023-04-14T04:25:04.320Z,3.30
2023-04-14T04:27:31.015Z,3.50
2023-04-14T04:29:57.665Z,3.40
2023-04-14T04:32:25.092Z,3.50
2023-04-14T04:34:52.972Z,3.60
2023-04-14T04:37:19.952Z,3.70
2023-04-14T04:39:48.609Z,3.70
2023-04-14T04:42:15.352Z,3.30
2023-04-14T04:44:44.079Z,3.50
2023-04-14T04:47:12.064Z,3.60
2023-04-14T04:49:38.721Z,4.80
2023-04-14T04:52:05.399Z,3.70
2023-04-14T04:54:32.090Z,3.70
2023-04-14T04:56:58.948Z,3.70
2023-04-14T04:59:25.932Z,3.60
2023-04-14T05:01:52.926Z,3.40
2023-04-14T05:04:19.672Z,3.40
2023-04-14T05:06:46.395Z,3.90
2023-04-14T05:09:13.051Z,3.80
2023-04-14T05:11:39.785Z,3.40
2023-04-14T05:14:06.507Z,3.80
2023-04-14T05:16:33.572Z,3.80
2023-04-14T05:19:00.684Z,3.90
2023-04-14T05:21:27.654Z,3.90
2023-04-14T05:23:54.314Z,3.80
2023-04-14T05:26:44.688Z,4.10
2023-04-14T05:31:35.681Z,4.30
2023-04-14T05:34:02.806Z,4.30
2023-04-14T05:36:29.655Z,4.00
2023-04-14T05:38:56.346Z,4.00
2023-04-14T05:41:23.615Z,4.00
2023-04-14T05:43:50.846Z,5.30
2023-04-14T05:46:17.751Z,4.20
2023-04-14T05:51:11.693Z,4.50
2023-04-14T05:53:38.398Z,4.50
2023-04-14T05:56:05.254Z,4.10
2023-04-14T05:58:31.931Z,4.50
2023-04-14T06:00:58.564Z,4.20
2023-04-14T06:03:25.487Z,4.50
2023-04-14T06:05:53.177Z,4.60
2023-04-14T06:08:20.745Z,4.50
2023-04-14T06:10:47.462Z,4.70
2023-04-14T06:13:14.172Z,4.80
2023-04-14T06:15:40.865Z,4.80
2023-04-14T06:18:07.624Z,4.80
2023-04-14T06:20:35.579Z,5.00
2023-04-14T06:23:02.283Z,4.90
2023-04-14T06:25:29.010Z,4.80
2023-04-14T06:27:55.678Z,5.60
2023-04-14T06:30:22.447Z,4.80
2023-04-14T06:32:54.078Z,5.00
2023-04-14T06:35:32.359Z,5.10
2023-04-14T06:38:00.847Z,5.20
2023-04-14T06:40:27.491Z,6.10
2023-04-14T06:42:54.135Z,5.40
2023-04-14T06:45:20.814Z,5.30
2023-04-14T06:47:47.583Z,5.10
2023-04-14T06:50:14.520Z,5.60
2023-04-14T06:52:41.363Z,5.30
2023-04-14T06:55:08.178Z,5.70
2023-04-14T06:57:34.837Z,5.80
2023-04-14T07:00:01.585Z,6.20
2023-04-14T07:02:29.005Z,5.90
2023-04-14T07:04:56.069Z,6.80
2023-04-14T07:07:24.376Z,6.30
2023-04-14T07:09:51.552Z,6.50
2023-04-14T07:12:18.484Z,6.50
2023-04-14T07:14:51.902Z,7.80
2023-04-14T07:17:19.338Z,6.30
2023-04-14T07:19:46.459Z,6.60
2023-04-14T07:22:13.248Z,6.40
2023-04-14T07:27:07.496Z,6.80
2023-04-14T07:32:01.675Z,7.00
2023-04-14T07:34:28.500Z,6.70
2023-04-14T07:39:23.857Z,7.40
2023-04-14T07:41:50.681Z,7.60
2023-04-14T07:44:17.366Z,7.50
2023-04-14T07:46:44.303Z,8.00
2023-04-14T07:49:11.294Z,8.10
2023-04-14T07:51:40.572Z,8.90
2023-04-14T07:54:07.575Z,7.50
2023-04-14T07:56:34.274Z,9.20
2023-04-14T07:59:01.720Z,8.70
2023-04-14T08:01:28.841Z,9.70
2023-04-14T08:03:55.645Z,9.60
2023-04-14T08:06:22.490Z,8.90
2023-04-14T08:08:49.136Z,9.10
2023-04-14T08:11:15.918Z,8.70
2023-04-14T08:13:43.539Z,9.20
2023-04-14T08:16:10.419Z,9.90
2023-04-14T08:18:37.373Z,9.90
2023-04-14T08:21:04.104Z,9.20
2023-04-14T08:23:30.869Z,9.40
2023-04-14T08:25:57.667Z,9.30
2023-04-14T08:28:24.650Z,9.50
2023-04-14T08:30:51.350Z,10.60
2023-04-14T08:33:18.028Z,10.20
2023-04-14T08:35:44.704Z,9.50
2023-04-14T08:38:11.607Z,10.30
2023-04-14T08:40:42.212Z,9.20
2023-04-14T08:43:09.054Z,9.90
2023-04-14T08:45:36.164Z,10.30
2023-04-14T08:48:03.195Z,11.30
2023-04-14T08:50:36.628Z,11.80
2023-04-14T08:53:06.163Z,11.40
2023-04-14T08:55:33.519Z,11.40
2023-04-14T08:58:01.316Z,11.90
2023-04-14T09:00:28.134Z,11.80
2023-04-14T09:02:55.772Z,11.10
2023-04-14T09:05:22.874Z,11.80
2023-04-14T09:07:49.551Z,11.60
2023-04-14T09:10:16.869Z,11.80
2023-04-14T09:12:43.991Z,11.70
2023-04-14T09:15:11.439Z,11.70
2023-04-14T09:17:38.170Z,11.80
2023-04-14T09:20:36.756Z,11.80
2023-04-14T09:22:52.832Z,12.10
2023-04-14T09:25:21.073Z,12.00
2023-04-14T09:27:50.951Z,10.30
2023-04-14T09:30:17.846Z,12.40
2023-04-14T09:32:45.276Z,12.10
2023-04-14T09:35:16.264Z,12.50
2023-04-14T09:37:46.529Z,12.00
2023-04-14T09:40:29.181Z,12.10
2023-04-14T09:42:56.521Z,12.50
2023-04-14T09:45:23.245Z,14.10
2023-04-14T09:48:06.103Z,12.50
2023-04-14T09:50:33.618Z,12.60
2023-04-14T09:53:04.197Z,12.30
2023-04-14T09:55:31.172Z,13.20
2023-04-14T09:57:57.983Z,12.50
2023-04-14T10:00:24.751Z,12.20
2023-04-14T10:02:52.481Z,11.30
2023-04-14T10:05:19.646Z,13.10
2023-04-14T10:07:46.563Z,12.40
2023-04-14T10:10:13.835Z,12.90
2023-04-14T10:12:44.220Z,12.90
2023-04-14T10:17:38.853Z,13.10
2023-04-14T10:20:06.891Z,12.60
2023-04-14T10:22:33.621Z,12.90
2023-04-14T10:25:00.591Z,13.30
2023-04-14T10:27:31.401Z,12.60
2023-04-14T10:29:58.546Z,14.00
2023-04-14T10:32:26.489Z,13.80
2023-04-14T10:35:14.413Z,13.80
2023-04-14T10:38:22.939Z,14.00
2023-04-14T10:43:44.407Z,13.80
2023-04-14T10:46:11.349Z,13.40
2023-04-14T10:48:39.214Z,13.60
2023-04-14T10:51:10.558Z,14.10
2023-04-14T10:53:47.657Z,13.60
2023-04-14T10:56:14.501Z,14.10
2023-04-14T10:58:41.214Z,14.70
2023-04-14T11:01:26.510Z,14.50
2023-04-14T11:06:51.668Z,15.40
2023-04-14T11:09:30.621Z,14.90
2023-04-14T11:12:01.949Z,15.20
2023-04-14T11:14:30.905Z,15.10
2023-04-14T11:17:05.142Z,15.60
2023-04-14T11:26:54.235Z,17.80
2023-04-14T11:29:23.472Z,16.80
2023-04-14T11:32:06.570Z,17.40
2023-04-14T11:34:34.405Z,17.30
2023-04-14T11:37:04.642Z,16.60
2023-04-14T11:42:00.621Z,17.90
2023-04-14T11:49:32.236Z,17.80
2023-04-14T11:52:04.183Z,18.00
2023-04-14T11:54:38.247Z,18.40
2023-04-14T11:57:12.349Z,17.30
2023-04-14T11:59:43.524Z,17.70
2023-04-14T12:02:17.932Z,17.90
2023-04-14T12:07:13.500Z,19.20
2023-04-14T12:09:44.744Z,19.80
2023-04-14T12:12:17.184Z,20.80
2023-04-14T12:14:45.017Z,19.30
2023-04-14T12:17:12.016Z,20.40
2023-04-14T12:19:38.769Z,18.90
2023-04-14T12:22:06.328Z,19.10
2023-04-14T12:24:33.626Z,19.70
2023-04-14T12:27:00.739Z,20.60
2023-04-14T12:29:27.493Z,20.70
2023-04-14T12:31:54.180Z,19.30
2023-04-14T12:34:31.398Z,18.00
2023-04-14T12:36:58.107Z,17.50
2023-04-14T12:39:25.742Z,17.30
2023-04-14T12:41:52.458Z,17.20
2023-04-14T12:46:50.893Z,17.30
2023-04-14T12:49:34.469Z,19.30
2023-04-14T12:52:01.218Z,19.00
2023-04-14T12:54:44.596Z,20.50
2023-04-14T12:57:12.471Z,20.40
2023-04-14T13:02:07.270Z,19.80
2023-04-14T13:04:33.989Z,19.50
2023-04-14T13:07:00.694Z,17.60
2023-04-14T13:09:29.237Z,16.90
2023-04-14T13:11:57.797Z,16.70
2023-04-14T13:19:20.941Z,16.20
2023-04-14T13:21:47.637Z,18.10
2023-04-14T13:24:14.373Z,16.60
2023-04-14T13:26:41.341Z,15.90
2023-04-14T13:31:35.993Z,15.00
2023-04-14T13:34:02.697Z,14.50
2023-04-14T13:36:29.517Z,13.90
2023-04-14T13:41:26.250Z,13.70
2023-04-14T13:43:53.014Z,14.80
2023-04-14T13:51:14.356Z,12.90
2023-04-14T13:53:41.047Z,12.30
2023-04-14T13:56:07.691Z,11.80
2023-04-14T13:58:34.374Z,13.90
2023-04-14T14:01:08.709Z,12.60
2023-04-14T14:03:35.641Z,12.50
2023-04-14T14:06:02.368Z,12.60
2023-04-14T14:08:30.525Z,12.70
2023-04-14T14:10:57.268Z,13.00
2023-04-14T14:13:23.960Z,13.40
2023-04-14T14:15:50.641Z,13.70
2023-04-14T14:18:17.665Z,13.10
2023-04-14T14:20:44.400Z,15.10
2023-04-14T14:25:41.086Z,15.90
2023-04-14T14:28:07.863Z,18.30
2023-04-14T14:30:34.539Z,18.40
2023-04-14T14:33:01.122Z,19.00
2023-04-14T14:35:27.872Z,21.00
2023-04-14T14:37:54.527Z,20.60
2023-04-14T14:40:21.199Z,19.80
2023-04-14T14:42:47.952Z,18.80
2023-04-14T14:45:15.342Z,16.90
2023-04-14T14:50:13.034Z,16.10
2023-04-14T14:55:07.125Z,15.90
2023-04-14T14:57:33.901Z,15.60
2023-04-14T15:02:27.910Z,15.70
2023-04-14T15:04:54.700Z,16.40
2023-04-14T15:07:21.363Z,16.60
2023-04-14T15:09:49.244Z,16.70
2023-04-14T15:12:15.885Z,17.20
2023-04-14T15:14:42.668Z,16.60
2023-04-14T15:17:09.356Z,16.90
2023-04-14T15:19:36.032Z,15.40
2023-04-14T15:22:02.678Z,15.20
2023-04-14T15:24:29.375Z,15.60
2023-04-14T15:29:25.967Z,14.90
2023-04-14T15:34:21.304Z,14.50
2023-04-14T15:36:48.035Z,14.10
2023-04-14T15:41:41.784Z,14.30
2023-04-14T15:44:08.409Z,14.50
2023-04-14T15:49:02.330Z,13.70
2023-04-14T15:51:29.059Z,15.20
2023-04-14T15:53:55.672Z,14.50
2023-04-14T15:56:23.406Z,13.40
2023-04-14T15:58:50.574Z,13.20
2023-04-14T16:01:17.426Z,14.70
2023-04-14T16:03:44.288Z,14.30
2023-04-14T16:06:11.507Z,13.80
2023-04-14T16:08:38.231Z,14.70
2023-04-14T16:11:05.054Z,12.20
2023-04-14T16:15:58.948Z,13.50
2023-04-14T16:18:25.872Z,13.80
2023-04-14T16:20:53.501Z,13.90
2023-04-14T16:23:20.528Z,13.40
2023-04-14T16:30:41.324Z,12.90
2023-04-14T16:35:35.432Z,12.50
2023-04-14T16:38:02.475Z,12.10
2023-04-14T16:40:29.484Z,11.80
2023-04-14T16:42:56.228Z,11.40
2023-04-14T16:45:22.876Z,11.60
2023-04-14T16:47:49.553Z,11.60
2023-04-14T16:50:16.359Z,11.50
2023-04-14T16:52:43.021Z,11.10
2023-04-14T16:55:09.958Z,11.10
2023-04-14T16:57:36.640Z,11.00
2023-04-14T17:00:03.860Z,10.70
2023-04-14T17:02:30.861Z,10.60
2023-04-14T17:04:58.440Z,10.20
2023-04-14T17:07:25.451Z,10.00
2023-04-14T17:09:52.074Z,10.30
2023-04-14T17:12:18.746Z,10.20
2023-04-14T17:14:45.371Z,10.30
2023-04-14T17:17:12.059Z,10.50
2023-04-14T17:19:38.837Z,10.50
2023-04-14T17:22:05.511Z,10.40
2023-04-14T17:24:32.132Z,10.10
2023-04-14T17:26:58.777Z,10.30
2023-04-14T17:29:25.707Z,9.80
2023-04-14T17:31:52.886Z,9.80
2023-04-14T17:34:20.674Z,9.50
2023-04-14T17:36:47.636Z,9.70
2023-04-14T17:39:14.347Z,10.50
2023-04-14T17:47:23.000Z,10.00
2023-04-14T17:49:50.035Z,9.90
2023-04-14T17:52:17.897Z,9.90
2023-04-14T17:54:45.014Z,9.80
2023-04-14T18:03:48.710Z,9.50
2023-04-14T18:06:37.967Z,9.60
2023-04-14T18:09:27.290Z,9.60
2023-04-14T18:18:01.678Z,9.40
2023-04-14T18:28:57.394Z,9.20
2023-04-14T18:31:32.860Z,9.10
2023-04-14T18:44:14.111Z,8.90
2023-04-14T18:50:42.400Z,8.80
2023-04-14T19:16:32.002Z,8.10
2023-04-14T19:19:00.731Z,8.10
2023-04-14T19:24:32.185Z,8.30
2023-04-14T19:26:58.917Z,7.70
2023-04-14T19:29:25.538Z,7.60
2023-04-14T19:31:52.232Z,7.60
2023-04-14T19:34:18.874Z,7.50
2023-04-14T19:36:46.357Z,7.50
2023-04-14T19:39:13.000Z,7.50
2023-04-14T19:41:39.657Z,7.40
2023-04-14T19:44:07.016Z,7.30
2023-04-14T19:46:35.656Z,7.30
2023-04-14T19:49:02.767Z,7.30
2023-04-14T19:51:30.421Z,7.30
2023-04-14T19:53:57.195Z,7.20
2023-04-14T19:56:23.851Z,7.00
2023-04-14T19:58:51.804Z,7.00
2023-04-14T20:01:18.661Z,7.00
2023-04-14T20:04:05.522Z,6.80
2023-04-14T20:06:33.003Z,6.70
2023-04-14T20:08:59.966Z,6.80
2023-04-14T20:11:28.184Z,6.80
2023-04-14T20:13:54.791Z,6.70
2023-04-14T20:16:22.093Z,6.50
2023-04-14T20:18:48.777Z,6.40
2023-04-14T20:21:15.428Z,6.30
2023-04-14T20:23:42.179Z,6.40
2023-04-14T20:26:10.894Z,6.30
2023-04-14T20:28:39.496Z,6.20
2023-04-14T20:31:06.770Z,5.80
2023-04-14T20:33:33.439Z,5.80
2023-04-14T20:36:01.794Z,5.70
2023-04-14T20:38:29.229Z,5.60
2023-04-14T20:43:23.137Z,5.30
2023-04-14T20:45:52.504Z,5.40
2023-04-14T20:48:19.486Z,5.50
2023-04-14T20:50:49.701Z,5.50
2023-04-14T20:53:17.835Z,5.30
2023-04-14T20:55:44.725Z,5.40
2023-04-14T20:58:11.968Z,5.30
2023-04-14T21:00:38.650Z,5.40
2023-04-14T21:03:05.539Z,5.40
2023-04-14T21:05:32.934Z,5.30
2023-04-14T21:07:59.617Z,5.50
2023-04-14T21:10:26.323Z,5.40
2023-04-14T21:15:26.424Z,6.20
2023-04-14T21:15:51.950Z,5.20
2023-04-14T21:18:22.508Z,5.10
2023-04-14T21:20:49.226Z,4.80
2023-04-14T21:25:43.428Z,5.00
2023-04-14T21:28:10.529Z,4.90
2023-04-14T21:30:37.707Z,5.00
2023-04-14T21:33:06.939Z,4.80
2023-04-14T21:35:34.605Z,4.70
2023-04-14T21:38:01.253Z,4.60
2023-04-14T21:40:28.380Z,4.50
2023-04-14T21:42:55.059Z,4.60
2023-04-14T21:45:22.067Z,4.50
2023-04-14T21:47:48.900Z,4.80
2023-04-14T21:50:15.626Z,4.80
2023-04-14T21:52:42.372Z,4.80
2023-04-14T21:55:09.282Z,4.90
2023-04-14T21:57:42.818Z,4.80
2023-04-14T22:00:17.600Z,5.20
2023-04-14T22:02:45.176Z,5.60
2023-04-14T22:05:12.078Z,4.70
2023-04-14T22:07:38.873Z,4.90
2023-04-14T22:10:06.647Z,4.70
2023-04-14T22:12:35.891Z,4.60
2023-04-14T22:17:31.253Z,4.50
2023-04-14T22:19:59.198Z,4.40
2023-04-14T22:24:54.051Z,4.40
2023-04-14T22:27:21.077Z,4.40
2023-04-14T22:32:15.960Z,4.20
2023-04-14T22:34:42.863Z,4.10
2023-04-14T22:39:36.978Z,4.00
2023-04-14T22:42:03.698Z,4.00
2023-04-14T22:44:30.670Z,3.80
2023-04-14T22:46:57.394Z,3.80
2023-04-14T22:49:24.123Z,3.70
2023-04-14T22:51:51.730Z,3.90
2023-04-14T22:54:18.361Z,4.00
2023-04-14T22:56:45.047Z,3.90
2023-04-14T22:59:11.715Z,3.90
2023-04-14T23:01:38.413Z,4.00
2023-04-14T23:04:05.506Z,4.00
2023-04-14T23:06:32.886Z,4.10
2023-04-14T23:08:59.900Z,3.90
2023-04-14T23:11:27.159Z,3.80
2023-04-14T23:13:53.866Z,3.80
2023-04-14T23:16:20.640Z,3.90
2023-04-14T23:18:53.024Z,3.70
2023-04-14T23:21:22.370Z,4.00
2023-04-14T23:23:49.636Z,3.80
2023-04-14T23:26:17.346Z,3.80
2023-04-14T23:28:44.089Z,3.80
2023-04-14T23:31:10.937Z,3.80
2023-04-14T23:33:37.666Z,3.90
2023-04-14T23:36:04.411Z,3.90
2023-04-14T23:38:31.091Z,4.10
2023-04-14T23:40:59.140Z,4.00
2023-04-14T23:43:27.452Z,3.80
2023-04-14T23:45:54.323Z,4.10
2023-04-14T23:48:21.069Z,4.10
2023-04-14T23:51:00.921Z,4.10
2023-04-14T23:53:35.367Z,4.10
2023-04-14T23:56:03.254Z,4.00
2023-04-14T23:58:30.480Z,4.00
